Terminal Aerodrome Forecast
Issued by NWS

Home | Current Version | Previous Version | Text Only | Print | Product List | Glossary On
Versions: 1 2 3 4 5 6 7 8 9 10 11 12 13 14
366
FTUS43 KEAX 191725
TAFMKC
TAF
KMKC 191725Z 1918/2018 21012KT P6SM BKN250
     FM201100 21009KT P6SM BKN030
     FM201200 21008KT P6SM BKN015
     FM201600 21006KT 5SM -DZ BR OVC008=

USA.gov is the U.S. government's official web portal to all federal, state and local government web resources and services.